Time;durP1;ratioP1;P1;durP2;ratioP2;P2;SDS_P1;SDS_P2;PMS_P1;PMS_P2;Temp;Humidity;BMP_temperature;BMP_pressure;BME280_temperature;BME280_humidity;BME280_pressure;Samples;Min_cycle;Max_cycle;Signal;HPM_P1;HPM_P2
2022/08/29 00:00:57;;;;;;;6.25;2.42;;;16.30;99.90;;;;;;5054279;28;20555;-73
2022/08/29 00:03:22;;;;;;;7.18;2.80;;;16.40;99.90;;;;;;5054874;28;20043;-74
2022/08/29 00:05:48;;;;;;;10.00;2.72;;;16.30;99.90;;;;;;5054806;28;20528;-74
2022/08/29 00:08:13;;;;;;;8.55;2.60;;;16.30;99.90;;;;;;5054808;28;20053;-74
2022/08/29 00:10:40;;;;;;;5.28;2.22;;;16.30;99.90;;;;;;5033880;28;20099;-73
2022/08/29 00:13:07;;;;;;;7.68;2.38;;;16.40;99.90;;;;;;5033975;28;20049;-74
2022/08/29 00:15:34;;;;;;;5.82;2.45;;;16.30;99.90;;;;;;5034510;28;20434;-74
2022/08/29 00:18:00;;;;;;;5.72;2.70;;;16.30;99.90;;;;;;5034822;28;20033;-73
2022/08/29 00:20:28;;;;;;;6.82;2.78;;;16.40;99.90;;;;;;5033567;28;20056;-74
2022/08/29 00:22:54;;;;;;;6.97;3.00;;;16.30;99.90;;;;;;5034875;28;20037;-73
2022/08/29 00:25:20;;;;;;;7.32;2.72;;;16.30;99.90;;;;;;5034800;28;20038;-74
2022/08/29 00:27:45;;;;;;;9.95;3.40;;;16.20;99.90;;;;;;5034996;28;20136;-73
2022/08/29 00:30:12;;;;;;;6.35;2.42;;;16.20;99.90;;;;;;5034424;28;20105;-74
2022/08/29 00:32:38;;;;;;;6.78;2.50;;;16.20;99.90;;;;;;5034465;28;20128;-72
2022/08/29 00:35:09;;;;;;;8.10;3.50;;;16.30;99.90;;;;;;5034136;28;20049;-72
2022/08/29 00:37:35;;;;;;;9.15;2.50;;;16.20;99.90;;;;;;5027830;28;20033;-71
2022/08/29 00:40:02;;;;;;;6.53;2.72;;;16.20;99.90;;;;;;5038760;28;20052;-71
2022/08/29 00:42:28;;;;;;;6.38;2.95;;;16.20;99.90;;;;;;5038543;28;20049;-72
2022/08/29 00:44:53;;;;;;;10.85;3.17;;;16.20;99.90;;;;;;5039020;28;20127;-71
2022/08/29 00:47:25;;;;;;;7.95;3.30;;;16.20;99.90;;;;;;5038703;28;20412;-72
2022/08/29 00:49:53;;;;;;;9.95;3.38;;;16.20;99.90;;;;;;5038811;28;20050;-71
2022/08/29 00:52:36;;;;;;;10.30;3.08;;;16.20;99.90;;;;;;5038269;28;20457;-71
2022/08/29 00:55:09;;;;;;;7.72;2.83;;;16.20;99.90;;;;;;5037075;28;20046;-72
2022/08/29 00:57:36;;;;;;;9.00;2.97;;;16.20;99.90;;;;;;5038339;28;20107;-72
2022/08/29 01:00:05;;;;;;;7.28;2.80;;;16.20;99.90;;;;;;5003371;28;20149;-72
2022/08/29 01:02:31;;;;;;;5.43;2.78;;;16.20;99.90;;;;;;5038543;28;20053;-73
2022/08/29 01:04:59;;;;;;;7.85;2.83;;;16.20;99.90;;;;;;5038330;28;20037;-72
2022/08/29 01:07:25;;;;;;;10.82;3.38;;;16.20;99.90;;;;;;5038246;28;20115;-72
2022/08/29 01:09:51;;;;;;;9.75;3.25;;;16.10;99.90;;;;;;5037487;28;20473;-72
2022/08/29 01:12:20;;;;;;;9.10;3.63;;;16.10;99.90;;;;;;5039288;28;20065;-71
2022/08/29 01:14:53;;;;;;;6.13;3.08;;;16.10;99.90;;;;;;5058003;28;20105;-72
2022/08/29 01:17:32;;;;;;;5.88;2.70;;;16.20;99.90;;;;;;5057969;28;20056;-72
2022/08/29 01:20:21;;;;;;;7.97;3.08;;;16.10;99.90;;;;;;5057878;28;20056;-72
2022/08/29 01:23:01;;;;;;;6.07;2.85;;;16.10;99.90;;;;;;5029499;28;20049;-71
2022/08/29 01:25:31;;;;;;;6.63;3.00;;;16.10;99.90;;;;;;5057379;28;20052;-72
2022/08/29 01:28:11;;;;;;;7.95;2.70;;;16.10;99.90;;;;;;5057719;28;20467;-72
2022/08/29 01:30:55;;;;;;;6.25;2.78;;;16.10;99.90;;;;;;5040370;28;20449;-71
2022/08/29 01:33:20;;;;;;;8.75;2.83;;;16.00;99.90;;;;;;5057966;28;20045;-71
2022/08/29 01:35:46;;;;;;;10.25;3.58;;;16.00;99.90;;;;;;5057551;28;20360;-72
2022/08/29 01:38:26;;;;;;;6.82;3.03;;;16.00;99.90;;;;;;5056897;28;20124;-72
2022/08/29 01:40:57;;;;;;;9.00;3.20;;;16.00;99.90;;;;;;5036093;28;20053;-71
2022/08/29 01:43:24;;;;;;;9.88;3.35;;;16.00;99.90;;;;;;5037557;28;20053;-72
2022/08/29 01:45:50;;;;;;;7.93;2.67;;;16.00;99.90;;;;;;5037450;28;20057;-72
2022/08/29 01:48:17;;;;;;;7.95;2.90;;;16.10;99.90;;;;;;5037219;28;20050;-71
2022/08/29 01:50:43;;;;;;;8.48;2.70;;;16.00;99.90;;;;;;5038374;28;20141;-71
2022/08/29 01:53:08;;;;;;;6.95;2.70;;;16.10;99.90;;;;;;5037462;28;20481;-71
2022/08/29 01:55:35;;;;;;;7.28;3.35;;;16.10;99.90;;;;;;5037374;28;20428;-71
2022/08/29 01:58:01;;;;;;;6.60;2.72;;;16.10;99.90;;;;;;5036289;28;20052;-71
2022/08/29 02:00:27;;;;;;;7.75;2.65;;;16.10;99.90;;;;;;5037155;28;20045;-72
2022/08/29 02:02:53;;;;;;;7.97;2.83;;;16.10;99.90;;;;;;5037315;28;20088;-72
2022/08/29 02:05:22;;;;;;;7.88;3.53;;;16.10;99.90;;;;;;5051599;28;20077;-72
2022/08/29 02:07:48;;;;;;;6.95;2.75;;;16.10;99.90;;;;;;5039787;28;20044;-72
2022/08/29 02:10:13;;;;;;;9.35;2.85;;;16.10;99.90;;;;;;5056837;28;20114;-72
2022/08/29 02:12:39;;;;;;;5.63;2.90;;;16.10;99.90;;;;;;5056776;28;20060;-72
2022/08/29 02:15:06;;;;;;;10.43;3.03;;;16.10;99.90;;;;;;5056899;28;20045;-73
2022/08/29 02:17:32;;;;;;;6.65;2.83;;;16.10;99.90;;;;;;5039755;28;20064;-73
2022/08/29 02:19:58;;;;;;;6.47;2.80;;;16.10;99.90;;;;;;5056495;28;20441;-75
2022/08/29 02:22:23;;;;;;;7.68;2.80;;;16.10;99.90;;;;;;5057018;28;20060;-71
2022/08/29 02:24:50;;;;;;;9.38;2.70;;;16.10;99.90;;;;;;5056614;28;20076;-72
2022/08/29 02:27:15;;;;;;;8.98;3.17;;;16.10;99.90;;;;;;5056564;28;20081;-71
2022/08/29 02:29:41;;;;;;;6.53;2.70;;;16.10;99.90;;;;;;5056909;28;20056;-71
2022/08/29 02:32:13;;;;;;;5.82;2.80;;;16.10;99.90;;;;;;5057031;28;20048;-74
2022/08/29 02:34:41;;;;;;;6.72;3.05;;;16.10;99.90;;;;;;5042847;28;20045;-74
2022/08/29 02:37:07;;;;;;;7.93;2.65;;;16.20;99.90;;;;;;5036586;28;20057;-73
2022/08/29 02:39:33;;;;;;;6.07;2.90;;;16.10;99.90;;;;;;5036365;28;20045;-73
2022/08/29 02:41:59;;;;;;;6.90;2.50;;;16.10;99.90;;;;;;5036509;28;20045;-72
2022/08/29 02:44:24;;;;;;;8.95;2.88;;;16.10;99.90;;;;;;5036811;28;20054;-73
2022/08/29 02:46:50;;;;;;;6.85;2.72;;;16.10;99.90;;;;;;5036374;28;20049;-74
2022/08/29 02:49:15;;;;;;;6.90;2.50;;;16.10;99.90;;;;;;5035827;28;20045;-73
2022/08/29 02:51:41;;;;;;;6.93;2.70;;;16.20;99.90;;;;;;5036050;28;20049;-73
2022/08/29 02:54:06;;;;;;;5.55;2.20;;;16.20;99.90;;;;;;5036302;28;20048;-73
2022/08/29 02:56:32;;;;;;;7.38;2.67;;;16.10;99.90;;;;;;5035919;28;20041;-73
2022/08/29 02:58:58;;;;;;;5.65;2.65;;;16.20;99.90;;;;;;5035735;28;20064;-74
2022/08/29 03:01:25;;;;;;;7.68;2.40;;;16.20;99.90;;;;;;5035481;28;20132;-73
2022/08/29 03:03:51;;;;;;;7.78;2.50;;;16.20;99.90;;;;;;5046354;28;20041;-74
2022/08/29 03:06:19;;;;;;;6.05;2.58;;;16.20;99.90;;;;;;5055522;28;20063;-74
2022/08/29 03:08:44;;;;;;;5.65;2.20;;;16.20;99.90;;;;;;5056078;28;20144;-73
2022/08/29 03:11:10;;;;;;;7.40;2.50;;;16.20;99.90;;;;;;5056019;28;20091;-73
2022/08/29 03:13:36;;;;;;;9.32;2.63;;;16.40;99.90;;;;;;5055274;28;20465;-73
2022/08/29 03:16:02;;;;;;;9.35;2.58;;;16.20;99.90;;;;;;5055630;28;20106;-74
2022/08/29 03:18:28;;;;;;;7.05;2.40;;;16.20;99.90;;;;;;5055610;28;20132;-74
2022/08/29 03:20:54;;;;;;;5.25;2.22;;;16.20;99.90;;;;;;5042561;28;20045;-74
2022/08/29 03:23:20;;;;;;;5.93;1.90;;;16.20;99.90;;;;;;5035847;28;20520;-74
2022/08/29 03:25:45;;;;;;;7.57;2.55;;;16.20;99.90;;;;;;5035641;28;20438;-73
2022/08/29 03:28:11;;;;;;;7.47;2.42;;;16.20;99.90;;;;;;5017184;28;20057;-73
2022/08/29 03:30:37;;;;;;;5.07;2.25;;;16.20;99.90;;;;;;5035575;28;20037;-75
2022/08/29 03:33:04;;;;;;;9.93;2.92;;;16.20;99.90;;;;;;5039141;28;20445;-72
2022/08/29 03:35:30;;;;;;;7.13;2.47;;;16.30;99.90;;;;;;5055355;28;20092;-71
2022/08/29 03:37:56;;;;;;;7.38;2.40;;;16.20;99.90;;;;;;5037838;28;20111;-72
2022/08/29 03:40:23;;;;;;;9.48;2.80;;;16.20;99.90;;;;;;5055196;28;20059;-72
2022/08/29 03:42:48;;;;;;;7.30;2.10;;;16.20;99.90;;;;;;5055266;28;20048;-72
2022/08/29 03:45:17;;;;;;;11.38;2.42;;;16.20;99.90;;;;;;5054791;28;20106;-72
2022/08/29 03:47:43;;;;;;;6.57;2.58;;;16.30;99.90;;;;;;5054913;28;20044;-71
2022/08/29 03:50:10;;;;;;;10.50;2.97;;;16.20;99.90;;;;;;5054773;28;20465;-72
2022/08/29 03:52:36;;;;;;;5.55;2.40;;;16.30;99.90;;;;;;5050909;28;20041;-72
2022/08/29 03:55:03;;;;;;;8.10;2.40;;;16.20;99.90;;;;;;5035105;28;20103;-72
2022/08/29 03:57:31;;;;;;;6.15;2.00;;;16.20;99.90;;;;;;5035532;28;20362;-71
2022/08/29 04:00:00;;;;;;;6.55;2.35;;;16.30;99.90;;;;;;5040449;28;20037;-73
2022/08/29 04:02:25;;;;;;;6.65;2.63;;;16.20;99.90;;;;;;5033238;28;20053;-71
2022/08/29 04:05:06;;;;;;;5.30;2.33;;;16.20;99.90;;;;;;5037022;28;20051;-71
2022/08/29 04:07:46;;;;;;;5.38;1.85;;;16.20;99.90;;;;;;5034807;28;20045;-71
2022/08/29 04:10:17;;;;;;;7.35;2.83;;;16.20;99.90;;;;;;5036731;28;20050;-72
2022/08/29 04:12:42;;;;;;;6.38;2.30;;;16.20;99.90;;;;;;5037086;28;20049;-72
2022/08/29 04:15:09;;;;;;;7.72;1.92;;;16.10;99.90;;;;;;5054661;28;20460;-72
2022/08/29 04:17:35;;;;;;;12.88;2.80;;;16.10;99.90;;;;;;5054823;28;20041;-72
2022/08/29 04:20:01;;;;;;;7.28;2.50;;;16.20;99.90;;;;;;5054259;28;20060;-71
2022/08/29 04:22:27;;;;;;;7.97;2.55;;;16.10;99.90;;;;;;5054326;28;20373;-72
2022/08/29 04:24:52;;;;;;;7.32;2.08;;;16.10;99.90;;;;;;5054895;28;20056;-71
2022/08/29 04:27:18;;;;;;;7.60;2.67;;;16.10;99.90;;;;;;5054593;28;20103;-72
2022/08/29 04:29:47;;;;;;;7.97;2.78;;;16.10;99.90;;;;;;5054570;28;20106;-71
2022/08/29 04:32:13;;;;;;;9.05;2.28;;;16.10;99.90;;;;;;5057743;28;20057;-72
2022/08/29 04:34:39;;;;;;;10.80;2.08;;;16.00;99.90;;;;;;5054427;28;20067;-71
2022/08/29 04:37:04;;;;;;;12.68;2.78;;;15.90;99.90;;;;;;5036316;28;20045;-72
2022/08/29 04:39:30;;;;;;;9.57;2.83;;;15.90;99.90;;;;;;5054576;28;20045;-72
2022/08/29 04:41:55;;;;;;;8.10;2.72;;;15.90;99.90;;;;;;5054906;28;20041;-72
2022/08/29 04:44:21;;;;;;;10.18;2.17;;;15.80;99.90;;;;;;5054456;28;20361;-72
2022/08/29 04:46:46;;;;;;;7.93;2.50;;;15.80;99.90;;;;;;5054333;28;20049;-72
2022/08/29 04:49:12;;;;;;;8.43;2.20;;;15.80;99.90;;;;;;5054223;28;20053;-72
2022/08/29 04:51:38;;;;;;;7.70;2.00;;;15.90;99.90;;;;;;5054111;28;20052;-72
2022/08/29 04:54:05;;;;;;;5.07;2.17;;;15.80;99.90;;;;;;5053821;28;20428;-73
2022/08/29 04:56:30;;;;;;;7.28;2.75;;;15.80;99.90;;;;;;5054594;28;20114;-72
2022/08/29 04:58:56;;;;;;;6.43;2.15;;;15.90;99.90;;;;;;5054684;28;20041;-71
2022/08/29 05:01:23;;;;;;;7.55;2.78;;;15.90;99.90;;;;;;5054230;28;20053;-73
2022/08/29 05:03:51;;;;;;;7.03;2.15;;;15.90;99.90;;;;;;5054898;28;20053;-72
2022/08/29 05:06:19;;;;;;;7.57;2.58;;;16.00;99.90;;;;;;5054041;28;20060;-74
2022/08/29 05:08:46;;;;;;;4.85;1.85;;;15.90;99.90;;;;;;5054471;28;20049;-73
2022/08/29 05:11:15;;;;;;;8.02;2.45;;;16.00;99.90;;;;;;5054461;28;20491;-72
2022/08/29 05:13:41;;;;;;;6.10;2.65;;;16.00;99.90;;;;;;5054262;28;20078;-73
2022/08/29 05:16:09;;;;;;;6.40;2.30;;;16.10;99.90;;;;;;5054579;28;20094;-73
2022/08/29 05:18:35;;;;;;;9.48;2.28;;;16.10;99.90;;;;;;5054437;28;20056;-73
2022/08/29 05:21:00;;;;;;;6.03;2.08;;;16.10;99.90;;;;;;5047341;28;20369;-72
2022/08/29 05:23:26;;;;;;;7.68;2.25;;;16.20;99.90;;;;;;5037797;28;20057;-72
2022/08/29 05:25:57;;;;;;;5.55;2.17;;;16.20;99.90;;;;;;5037763;28;20041;-72
2022/08/29 05:28:23;;;;;;;10.68;2.45;;;16.30;99.90;;;;;;5020048;28;20077;-72
2022/08/29 05:30:49;;;;;;;11.75;2.60;;;16.40;99.90;;;;;;5038150;28;20122;-72
2022/08/29 05:33:16;;;;;;;7.88;2.47;;;16.40;99.90;;;;;;5038123;28;20053;-72
2022/08/29 05:35:42;;;;;;;7.05;2.22;;;16.40;99.90;;;;;;5037612;28;20063;-72
2022/08/29 05:38:08;;;;;;;6.93;2.58;;;16.40;99.90;;;;;;5037551;28;20037;-72
2022/08/29 05:40:35;;;;;;;12.63;2.83;;;16.50;99.90;;;;;;5037832;28;20132;-72
2022/08/29 05:43:00;;;;;;;8.63;2.47;;;16.50;99.90;;;;;;5020173;28;20046;-72
2022/08/29 05:45:26;;;;;;;6.50;2.40;;;16.50;99.90;;;;;;5038009;28;20099;-72
2022/08/29 05:47:52;;;;;;;5.88;2.30;;;16.50;99.90;;;;;;5037518;28;20118;-72
2022/08/29 05:50:18;;;;;;;7.10;2.22;;;16.60;99.90;;;;;;5037421;28;20119;-72
2022/08/29 05:52:44;;;;;;;7.45;2.63;;;16.60;99.90;;;;;;5057625;28;20052;-72
2022/08/29 05:55:10;;;;;;;8.25;2.42;;;16.70;99.90;;;;;;5057887;28;20080;-72
2022/08/29 05:57:36;;;;;;;8.23;2.28;;;16.80;99.90;;;;;;5057006;28;20041;-72
2022/08/29 06:00:03;;;;;;;8.80;2.75;;;16.80;99.90;;;;;;5057218;28;20350;-72
2022/08/29 06:02:29;;;;;;;7.68;2.80;;;16.90;99.90;;;;;;5057210;28;20075;-72
2022/08/29 06:04:55;;;;;;;7.70;2.50;;;17.00;99.90;;;;;;5057353;28;20045;-72
2022/08/29 06:07:21;;;;;;;6.72;2.17;;;17.00;99.90;;;;;;5037239;28;20108;-71
2022/08/29 06:09:47;;;;;;;4.60;2.28;;;17.10;99.90;;;;;;5037492;28;20157;-71
2022/08/29 06:12:14;;;;;;;6.05;2.40;;;17.30;99.90;;;;;;5037279;28;20529;-71
2022/08/29 06:14:40;;;;;;;8.40;2.90;;;17.60;99.90;;;;;;5037021;28;20042;-71
2022/08/29 06:17:07;;;;;;;9.07;2.25;;;17.70;99.90;;;;;;5037269;28;20041;-71
2022/08/29 06:19:33;;;;;;;7.78;2.15;;;17.80;99.90;;;;;;5037034;28;20056;-71
2022/08/29 06:22:03;;;;;;;9.95;2.58;;;17.90;99.90;;;;;;5036544;28;20081;-71
2022/08/29 06:24:30;;;;;;;6.80;2.25;;;17.90;99.90;;;;;;5037137;28;20042;-71
2022/08/29 06:26:56;;;;;;;5.03;2.22;;;18.00;99.90;;;;;;5036834;28;20045;-71
2022/08/29 06:29:22;;;;;;;8.57;1.95;;;18.10;99.90;;;;;;5037012;28;20339;-71
2022/08/29 06:31:48;;;;;;;7.85;2.10;;;18.20;99.90;;;;;;5036714;28;20041;-71
2022/08/29 06:34:14;;;;;;;4.10;2.00;;;18.40;99.90;;;;;;5035486;28;20195;-71
2022/08/29 06:36:39;;;;;;;7.90;2.30;;;18.90;99.90;;;;;;5035855;28;20053;-71
2022/08/29 06:39:08;;;;;;;6.53;2.50;;;19.70;99.90;;;;;;5036296;28;20041;-71
2022/08/29 06:41:35;;;;;;;6.20;2.20;;;20.50;99.90;;;;;;5036641;28;20052;-71
2022/08/29 06:44:01;;;;;;;7.82;2.25;;;21.30;99.90;;;;;;5036493;28;20449;-71
2022/08/29 06:46:29;;;;;;;7.57;2.35;;;21.60;99.90;;;;;;5036446;28;20049;-70
2022/08/29 06:48:56;;;;;;;9.30;2.85;;;21.50;99.90;;;;;;5036057;28;20045;-71
2022/08/29 06:51:23;;;;;;;7.07;2.33;;;21.20;99.90;;;;;;5035897;28;20045;-71
2022/08/29 06:53:49;;;;;;;6.40;2.40;;;20.90;99.90;;;;;;5035893;28;20366;-71
2022/08/29 06:56:15;;;;;;;8.93;2.10;;;20.60;99.90;;;;;;5036430;28;20050;-71
2022/08/29 06:58:40;;;;;;;6.75;2.35;;;20.40;99.90;;;;;;5036169;28;20044;-71
2022/08/29 07:01:08;;;;;;;6.43;1.95;;;20.30;99.90;;;;;;5036329;28;20041;-71
2022/08/29 07:03:34;;;;;;;7.75;2.42;;;20.00;99.90;;;;;;5036043;28;20034;-71
2022/08/29 07:06:00;;;;;;;7.18;2.30;;;20.00;99.90;;;;;;5035813;28;20096;-71
2022/08/29 07:08:26;;;;;;;8.18;2.55;;;19.90;99.90;;;;;;5035853;28;20041;-71
2022/08/29 07:10:52;;;;;;;7.55;2.13;;;19.90;99.90;;;;;;5043626;28;20045;-72
2022/08/29 07:13:17;;;;;;;5.32;2.03;;;19.90;99.90;;;;;;5056086;28;20053;-71
2022/08/29 07:15:43;;;;;;;5.30;2.08;;;19.80;99.90;;;;;;5055816;28;20468;-71
2022/08/29 07:18:09;;;;;;;6.80;1.65;;;19.80;99.90;;;;;;5055686;28;20040;-70
2022/08/29 07:20:38;;;;;;;6.10;2.20;;;19.80;99.90;;;;;;5055572;28;20113;-71
2022/08/29 07:23:05;;;;;;;6.78;2.03;;;19.80;99.90;;;;;;5055649;28;20191;-71
2022/08/29 07:25:31;;;;;;;6.10;1.95;;;19.80;99.90;;;;;;5055500;28;20055;-71
2022/08/29 07:27:56;;;;;;;11.75;2.75;;;19.80;99.90;;;;;;5055849;28;20041;-71
2022/08/29 07:30:22;;;;;;;7.82;2.50;;;19.80;99.90;;;;;;5055726;28;20045;-72
2022/08/29 07:32:48;;;;;;;6.68;2.28;;;19.90;99.90;;;;;;5054973;28;20145;-71
2022/08/29 07:35:15;;;;;;;7.88;2.30;;;20.00;99.90;;;;;;5050384;28;20116;-71
2022/08/29 07:37:41;;;;;;;6.25;2.25;;;20.00;99.90;;;;;;5034993;28;20041;-70
2022/08/29 07:40:09;;;;;;;9.95;3.17;;;20.10;99.90;;;;;;5035576;28;20048;-71
2022/08/29 07:42:36;;;;;;;11.60;2.65;;;20.20;99.90;;;;;;5035578;28;20046;-71
2022/08/29 07:45:04;;;;;;;11.15;2.65;;;20.30;99.90;;;;;;5035235;28;20052;-71
2022/08/29 07:47:30;;;;;;;12.73;2.85;;;20.40;99.90;;;;;;5017620;28;20049;-71
2022/08/29 07:49:55;;;;;;;13.13;2.88;;;20.40;99.90;;;;;;5035034;28;20046;-70
2022/08/29 07:52:21;;;;;;;10.88;3.08;;;20.50;99.90;;;;;;5018029;28;20033;-71
2022/08/29 07:54:47;;;;;;;12.43;2.63;;;20.70;99.90;;;;;;5036111;28;20108;-71
2022/08/29 07:57:16;;;;;;;8.32;2.88;;;21.00;99.90;;;;;;5035179;28;20496;-71
2022/08/29 07:59:42;;;;;;;11.50;3.00;;;21.10;99.90;;;;;;5035095;28;20475;-71
2022/08/29 08:02:07;;;;;;;9.90;2.53;;;21.10;99.90;;;;;;5035086;28;20096;-71
2022/08/29 08:04:33;;;;;;;10.15;2.50;;;21.10;99.90;;;;;;5035663;28;20133;-71
2022/08/29 08:06:58;;;;;;;10.02;3.13;;;21.10;99.90;;;;;;5053803;28;20052;-72
2022/08/29 08:09:24;;;;;;;7.93;2.50;;;21.10;99.90;;;;;;5055145;28;20055;-72
2022/08/29 08:11:49;;;;;;;7.35;2.70;;;21.30;99.90;;;;;;5054439;28;20060;-71
2022/08/29 08:14:15;;;;;;;12.48;2.75;;;21.20;99.90;;;;;;5054849;28;20041;-72
2022/08/29 08:16:41;;;;;;;12.20;2.72;;;21.40;99.90;;;;;;5054799;28;20130;-71
2022/08/29 08:19:07;;;;;;;6.95;2.58;;;21.50;99.90;;;;;;5054921;28;20167;-71
2022/08/29 08:21:33;;;;;;;9.43;2.42;;;21.60;99.90;;;;;;5054476;28;20128;-72
2022/08/29 08:23:59;;;;;;;5.50;2.22;;;21.50;99.90;;;;;;5054762;28;20041;-72
2022/08/29 08:26:24;;;;;;;7.13;2.42;;;21.40;99.90;;;;;;5054644;28;20099;-72
2022/08/29 08:28:50;;;;;;;8.82;2.58;;;21.70;99.90;;;;;;5054676;28;20366;-72
2022/08/29 08:31:17;;;;;;;13.68;2.78;;;22.20;99.90;;;;;;5054696;28;20049;-72
2022/08/29 08:33:44;;;;;;;6.47;2.35;;;22.30;99.90;;;;;;5054958;28;20044;-72
2022/08/29 08:36:17;;;;;;;8.73;2.47;;;22.00;99.90;;;;;;5037958;28;20107;-71
2022/08/29 08:38:43;;;;;;;9.02;2.75;;;21.90;99.90;;;;;;5034927;28;20038;-71
2022/08/29 08:41:35;;;;;;;8.68;2.40;;;21.70;99.90;;;;;;5034979;28;20033;-72
2022/08/29 08:44:09;;;;;;;9.43;3.20;;;21.40;99.90;;;;;;5034366;28;20057;-72
2022/08/29 08:46:37;;;;;;;6.90;2.92;;;21.10;99.90;;;;;;5034743;28;20054;-72
2022/08/29 08:49:11;;;;;;;14.40;3.25;;;21.10;99.90;;;;;;5034385;28;20084;-72
2022/08/29 08:51:42;;;;;;;14.02;3.35;;;21.00;99.90;;;;;;5034652;28;20049;-72
2022/08/29 08:54:18;;;;;;;14.88;3.67;;;20.90;99.90;;;;;;5034657;28;20103;-73
2022/08/29 08:56:49;;;;;;;10.82;3.35;;;20.90;99.90;;;;;;5035345;28;20056;-72
2022/08/29 08:59:40;;;;;;;8.05;2.92;;;20.90;99.90;;;;;;5038379;28;20107;-71
2022/08/29 09:02:32;;;;;;;13.80;3.50;;;20.90;99.90;;;;;;5052772;28;20083;-71
2022/08/29 09:05:30;;;;;;;10.13;3.50;;;21.00;99.90;;;;;;5058214;28;20045;-71
2022/08/29 09:08:09;;;;;;;12.02;2.85;;;21.00;99.90;;;;;;5058297;28;20457;-71
2022/08/29 09:10:59;;;;;;;14.70;3.20;;;21.10;99.90;;;;;;5058023;28;20052;-71
2022/08/29 09:13:32;;;;;;;10.82;3.15;;;21.00;99.90;;;;;;5057701;28;20134;-71
2022/08/29 09:15:59;;;;;;;9.68;2.55;;;21.10;99.90;;;;;;5058397;28;20059;-71
2022/08/29 09:18:33;;;;;;;13.13;3.45;;;21.10;99.90;;;;;;5058356;28;20327;-71
2022/08/29 09:21:02;;;;;;;9.15;2.95;;;21.10;99.90;;;;;;5057912;28;20041;-71
2022/08/29 09:23:33;;;;;;;7.70;2.83;;;21.10;99.90;;;;;;5058173;28;20055;-70
2022/08/29 09:25:58;;;;;;;8.93;2.97;;;21.20;99.90;;;;;;5058050;28;20085;-71
2022/08/29 09:28:25;;;;;;;10.77;2.90;;;21.20;99.90;;;;;;5046386;28;20087;-72
2022/08/29 09:31:17;;;;;;;9.52;2.72;;;21.30;99.90;;;;;;5034887;28;20099;-71
2022/08/29 09:33:51;;;;;;;7.05;2.83;;;21.20;99.90;;;;;;5036702;28;20041;-71
2022/08/29 09:36:38;;;;;;;12.27;3.25;;;21.30;99.90;;;;;;5037313;28;20401;-71
2022/08/29 09:39:26;;;;;;;10.13;3.10;;;21.30;99.90;;;;;;5037088;28;20060;-71
2022/08/29 09:41:56;;;;;;;10.32;3.15;;;21.30;99.90;;;;;;5037630;28;20045;-72
2022/08/29 09:44:26;;;;;;;13.82;3.17;;;21.30;99.90;;;;;;5057151;28;20091;-71
2022/08/29 09:47:03;;;;;;;7.38;3.15;;;21.40;99.90;;;;;;5056848;28;20076;-72
2022/08/29 09:49:28;;;;;;;9.30;3.00;;;21.30;99.90;;;;;;5056471;28;20119;-71
2022/08/29 09:52:13;;;;;;;8.70;3.20;;;21.40;99.90;;;;;;5056876;28;20139;-71
2022/08/29 09:54:40;;;;;;;8.05;3.00;;;21.40;99.90;;;;;;5056804;28;20045;-71
2022/08/29 09:57:17;;;;;;;7.00;2.58;;;21.30;99.90;;;;;;5051690;28;20437;-71
2022/08/29 09:59:49;;;;;;;10.65;2.58;;;21.40;99.90;;;;;;5036383;28;20084;-71
2022/08/29 10:02:20;;;;;;;7.85;2.55;;;21.40;99.90;;;;;;5036457;28;20478;-72
2022/08/29 10:04:51;;;;;;;9.80;3.03;;;21.40;99.90;;;;;;5036752;28;20076;-71
2022/08/29 10:07:26;;;;;;;10.57;3.15;;;21.40;99.90;;;;;;5036446;28;20224;-71
2022/08/29 10:10:12;;;;;;;12.45;2.90;;;21.30;99.90;;;;;;5036373;28;20042;-71
2022/08/29 10:12:48;;;;;;;6.50;2.85;;;21.40;99.90;;;;;;5055998;28;20056;-71
2022/08/29 10:15:21;;;;;;;9.88;3.60;;;21.40;99.90;;;;;;5056243;28;20057;-72
2022/08/29 10:21:06;;;;;;;10.75;3.25;;;21.60;99.90;;;;;;5075042;28;19920;-71
2022/08/29 10:24:11;;;;;;;10.90;3.33;;;21.70;99.90;;;;;;5076575;28;20111;-73
2022/08/29 10:26:59;;;;;;;11.85;3.08;;;21.60;99.90;;;;;;5029077;28;20130;-72
2022/08/29 10:29:53;;;;;;;7.15;2.80;;;21.60;99.90;;;;;;5063657;28;20037;-72
2022/08/29 10:32:57;;;;;;;12.35;3.17;;;21.70;99.90;;;;;;5056645;28;20059;-70
2022/08/29 10:35:29;;;;;;;8.43;2.45;;;21.80;99.90;;;;;;5056134;28;20462;-71
2022/08/29 10:38:32;;;;;;;6.87;2.63;;;21.70;99.90;;;;;;5056441;28;20052;-71
2022/08/29 10:41:35;;;;;;;11.80;3.10;;;21.70;99.90;;;;;;5056559;28;20053;-71
2022/08/29 10:44:09;;;;;;;8.75;2.53;;;21.60;99.90;;;;;;5056187;28;20088;-71
2022/08/29 10:46:41;;;;;;;7.93;2.60;;;21.70;99.90;;;;;;5056290;28;20053;-72
2022/08/29 10:49:31;;;;;;;6.80;2.63;;;21.80;99.90;;;;;;5056301;28;20377;-70
2022/08/29 10:52:10;;;;;;;9.77;2.92;;;21.80;99.90;;;;;;5056239;28;20055;-70
2022/08/29 10:55:13;;;;;;;11.40;3.53;;;21.80;99.90;;;;;;5056461;28;20048;-71
2022/08/29 10:57:57;;;;;;;10.27;2.63;;;21.80;99.90;;;;;;5055914;28;20049;-71
2022/08/29 11:00:33;;;;;;;10.93;3.33;;;21.80;99.90;;;;;;5056064;28;20461;-71
2022/08/29 11:03:38;;;;;;;9.93;2.97;;;21.80;99.90;;;;;;5055945;28;20060;-70
2022/08/29 11:06:25;;;;;;;11.77;3.72;;;21.70;99.90;;;;;;5055909;28;20044;-71
2022/08/29 11:09:00;;;;;;;10.43;3.78;;;21.80;99.90;;;;;;5055581;28;20420;-71
2022/08/29 11:11:30;;;;;;;5.90;2.38;;;21.80;99.90;;;;;;5055248;28;20045;-72
2022/08/29 11:14:01;;;;;;;7.43;2.70;;;21.90;99.90;;;;;;5055774;28;20148;-72
2022/08/29 11:16:42;;;;;;;10.40;2.97;;;22.00;99.90;;;;;;5056024;28;20045;-72
2022/08/29 11:19:33;;;;;;;8.73;2.45;;;22.20;99.90;;;;;;5055065;28;20041;-72
2022/08/29 11:22:15;;;;;;;10.05;2.60;;;22.30;99.90;;;;;;5055633;28;20041;-71
2022/08/29 11:24:43;;;;;;;8.00;2.67;;;22.40;99.90;;;;;;5055677;28;20437;-72
2022/08/29 11:27:31;;;;;;;10.55;2.92;;;22.60;99.90;;;;;;5042572;28;20042;-72
2022/08/29 11:30:05;;;;;;;9.90;3.05;;;22.80;99.90;;;;;;5035370;28;20059;-71
2022/08/29 11:32:36;;;;;;;9.82;2.70;;;22.80;99.90;;;;;;5035545;28;20049;-72
2022/08/29 11:35:11;;;;;;;8.85;2.70;;;22.80;99.90;;;;;;5035886;28;20358;-73
2022/08/29 11:38:03;;;;;;;10.30;3.17;;;22.90;99.90;;;;;;5035546;28;20052;-72
2022/08/29 11:40:50;;;;;;;6.85;2.20;;;23.00;99.90;;;;;;5035837;28;20064;-71
2022/08/29 11:43:20;;;;;;;7.63;2.65;;;22.90;99.90;;;;;;5035293;28;20037;-73
2022/08/29 11:45:57;;;;;;;10.85;2.90;;;22.70;99.90;;;;;;5035630;28;20048;-72
2022/08/29 11:48:44;;;;;;;15.13;3.00;;;22.60;99.90;;;;;;5035245;28;20107;-73
2022/08/29 11:51:32;;;;;;;7.25;2.55;;;22.50;99.90;;;;;;5035137;28;20060;-72
2022/08/29 11:54:23;;;;;;;10.93;2.78;;;22.50;99.90;;;;;;5035488;28;20068;-72
2022/08/29 11:57:09;;;;;;;8.50;2.60;;;22.50;99.90;;;;;;5048523;28;20045;-71
2022/08/29 11:59:55;;;;;;;5.10;2.30;;;22.40;99.90;;;;;;5033915;28;20044;-72
2022/08/29 12:02:26;;;;;;;5.47;2.03;;;22.50;99.90;;;;;;5055155;28;20041;-72
2022/08/29 12:04:59;;;;;;;6.88;2.58;;;22.40;99.90;;;;;;5055156;28;20117;-72
2022/08/29 12:07:48;;;;;;;10.07;2.28;;;22.60;99.90;;;;;;5054235;28;20056;-72
2022/08/29 12:10:22;;;;;;;6.13;2.20;;;22.80;99.90;;;;;;5054752;28;20044;-72
2022/08/29 12:13:05;;;;;;;9.25;2.58;;;22.80;99.90;;;;;;5055171;28;20117;-72
2022/08/29 12:15:37;;;;;;;10.38;2.08;;;22.80;99.90;;;;;;5054741;28;20194;-72
2022/08/29 12:18:08;;;;;;;5.45;1.90;;;22.90;99.90;;;;;;5055040;28;20045;-73
2022/08/29 12:20:44;;;;;;;4.53;2.03;;;22.70;99.90;;;;;;5049375;28;20129;-73
2022/08/29 12:23:09;;;;;;;7.28;2.50;;;22.80;99.90;;;;;;5035098;28;20042;-73
2022/08/29 12:25:42;;;;;;;7.32;2.17;;;22.80;99.90;;;;;;5034016;28;20119;-72
2022/08/29 12:28:31;;;;;;;6.90;2.65;;;22.90;99.90;;;;;;5034639;28;20053;-72
2022/08/29 12:31:23;;;;;;;7.93;2.35;;;22.90;99.90;;;;;;5034766;28;20060;-72
2022/08/29 12:34:19;;;;;;;10.52;2.17;;;22.90;99.90;;;;;;5022464;28;20046;-73
2022/08/29 12:37:00;;;;;;;9.02;2.28;;;22.90;99.90;;;;;;5055523;28;20045;-73
2022/08/29 12:40:10;;;;;;;3.92;1.63;;;23.00;99.90;;;;;;5058637;28;20111;-73
2022/08/29 12:43:01;;;;;;;4.68;1.88;;;23.10;99.90;;;;;;5058432;28;20052;-73
2022/08/29 12:45:30;;;;;;;5.47;2.13;;;23.20;99.90;;;;;;5058991;28;20049;-73
2022/08/29 12:48:00;;;;;;;7.43;2.63;;;23.20;99.90;;;;;;5058801;28;20056;-72
2022/08/29 12:50:30;;;;;;;8.30;2.38;;;23.00;99.90;;;;;;5049825;28;20041;-73
2022/08/29 12:53:03;;;;;;;6.25;2.00;;;23.10;99.90;;;;;;5038406;28;20482;-72
2022/08/29 12:55:42;;;;;;;7.57;2.03;;;23.10;99.90;;;;;;5039037;28;20056;-72
2022/08/29 12:58:10;;;;;;;6.57;2.03;;;23.20;99.90;;;;;;5038780;28;20120;-72
2022/08/29 13:00:36;;;;;;;6.20;1.70;;;23.10;99.90;;;;;;5038738;28;20049;-73
2022/08/29 13:03:11;;;;;;;8.35;1.95;;;23.20;99.90;;;;;;5038450;28;20110;-72
2022/08/29 13:05:39;;;;;;;8.02;2.10;;;23.30;99.90;;;;;;5038288;28;20042;-73
2022/08/29 13:08:08;;;;;;;6.38;2.00;;;23.40;99.90;;;;;;5038218;28;20048;-72